Terminal Aerodrome Forecast
Issued by NWS

Home | Current Version | Previous Version | Text Only | Print | Product List | Glossary On
Versions: 1 2 3 4 5 6 7 8 9 10 11 12 13 14 15 16 17
529
FTUS43 KDLH 221720
TAFHYR
TAF
KHYR 221720Z 2218/2318 24009KT P6SM OVC150
     FM222300 22004KT P6SM SKC
     FM230500 19007KT P6SM BKN110 WS020/21040KT
     FM231000 20006KT P6SM BKN080
     FM231600 24008KT P6SM BKN060=

USA.gov is the U.S. government's official web portal to all federal, state and local government web resources and services.